createdAt,value
2023-05-12T00:01:46.535Z,83.00
2023-05-12T00:06:48.905Z,86.50
2023-05-12T00:11:51.193Z,86.50
2023-05-12T00:16:53.635Z,85.80
2023-05-12T00:21:55.860Z,83.70
2023-05-12T00:26:58.136Z,85.60
2023-05-12T00:32:00.718Z,84.30
2023-05-12T00:37:03.061Z,83.30
2023-05-12T00:42:05.771Z,83.60
2023-05-12T00:47:09.260Z,85.60
2023-05-12T00:52:11.862Z,85.40
2023-05-12T00:57:14.806Z,87.10
2023-05-12T01:02:17.384Z,86.40
2023-05-12T01:07:23.146Z,86.50
2023-05-12T01:12:27.445Z,85.30
2023-05-12T01:17:35.211Z,86.30
2023-05-12T01:22:40.146Z,85.60
2023-05-12T01:27:43.939Z,84.50
2023-05-12T01:32:46.431Z,87.30
2023-05-12T01:37:48.660Z,84.90
2023-05-12T01:42:50.810Z,86.30
2023-05-12T01:47:53.658Z,88.00
2023-05-12T01:52:56.078Z,87.80
2023-05-12T01:57:58.251Z,87.50
2023-05-12T02:03:01.170Z,87.00
2023-05-12T02:08:04.540Z,86.80
2023-05-12T02:13:07.200Z,84.40
2023-05-12T02:18:10.449Z,85.50
2023-05-12T02:23:14.697Z,86.70
2023-05-12T02:28:16.986Z,87.40
2023-05-12T02:33:23.359Z,85.50
2023-05-12T02:38:25.947Z,87.20
2023-05-12T02:43:28.203Z,85.70
2023-05-12T02:48:30.782Z,87.90
2023-05-12T02:53:33.332Z,88.50
2023-05-12T02:58:35.754Z,88.00
2023-05-12T03:03:38.078Z,86.60
2023-05-12T03:08:40.481Z,87.00
2023-05-12T03:13:42.670Z,86.80
2023-05-12T03:18:44.829Z,88.60
2023-05-12T03:23:47.119Z,87.30
2023-05-12T03:28:49.505Z,87.50
2023-05-12T03:33:51.613Z,87.10
2023-05-12T03:38:53.976Z,88.10
2023-05-12T03:43:56.281Z,88.70
2023-05-12T03:48:59.133Z,89.20
2023-05-12T03:54:01.859Z,90.70
2023-05-12T03:59:04.375Z,90.30
2023-05-12T04:04:06.659Z,88.40
2023-05-12T04:09:08.909Z,88.50
2023-05-12T04:14:11.977Z,89.10
2023-05-12T04:19:14.078Z,89.80
2023-05-12T04:24:16.590Z,90.70
2023-05-12T04:29:19.036Z,89.70
2023-05-12T04:34:22.419Z,89.70
2023-05-12T04:39:25.523Z,90.30
2023-05-12T04:44:28.319Z,90.40
2023-05-12T04:49:30.919Z,90.60
2023-05-12T04:54:33.283Z,91.30
2023-05-12T04:59:36.296Z,90.80
2023-05-12T05:04:38.909Z,90.70
2023-05-12T05:09:41.146Z,90.60
2023-05-12T05:14:43.315Z,90.70
2023-05-12T05:19:57.286Z,91.30
2023-05-12T05:25:01.065Z,90.90
2023-05-12T05:30:03.676Z,90.90
2023-05-12T05:35:08.529Z,91.30
2023-05-12T05:40:14.514Z,91.60
2023-05-12T05:45:17.066Z,90.90
2023-05-12T05:50:19.730Z,91.10
2023-05-12T05:55:22.540Z,91.10
2023-05-12T06:00:25.933Z,91.00
2023-05-12T06:05:28.566Z,91.40
2023-05-12T06:10:31.252Z,90.00
2023-05-12T06:15:34.380Z,90.00
2023-05-12T06:20:36.622Z,89.40
2023-05-12T06:25:38.824Z,89.20
2023-05-12T06:30:41.012Z,91.30
2023-05-12T06:35:43.316Z,90.90
2023-05-12T06:40:45.657Z,89.70
2023-05-12T06:45:48.306Z,90.10
2023-05-12T06:50:50.462Z,90.20
2023-05-12T06:55:56.462Z,86.20
2023-05-12T07:00:59.470Z,86.80
2023-05-12T07:06:02.256Z,89.20
2023-05-12T07:11:04.630Z,85.30
2023-05-12T07:16:07.533Z,85.40
2023-05-12T07:21:10.519Z,85.40
2023-05-12T07:26:12.785Z,90.60
2023-05-12T07:31:15.005Z,90.10
2023-05-12T07:36:17.201Z,85.60
2023-05-12T07:41:19.414Z,85.90
2023-05-12T07:46:21.547Z,84.50
2023-05-12T07:51:23.989Z,87.60
2023-05-12T07:56:26.167Z,87.30
2023-05-12T08:01:28.388Z,86.90
2023-05-12T08:06:31.941Z,85.90
2023-05-12T08:11:34.335Z,79.80
2023-05-12T08:16:36.857Z,79.70
2023-05-12T08:21:39.082Z,85.30
2023-05-12T08:26:41.343Z,81.60
2023-05-12T08:31:43.780Z,80.30
2023-05-12T08:36:46.126Z,80.90
2023-05-12T08:42:11.002Z,81.40
2023-05-12T08:47:15.074Z,81.40
2023-05-12T08:52:21.856Z,81.80
2023-05-12T08:57:26.403Z,75.50
2023-05-12T09:02:44.756Z,78.20
2023-05-12T09:07:53.571Z,77.30
2023-05-12T09:13:04.456Z,80.80
2023-05-12T09:18:06.944Z,78.00
2023-05-12T09:23:22.202Z,85.30
2023-05-12T09:28:24.500Z,78.00
2023-05-12T09:33:26.686Z,76.80
2023-05-12T09:38:29.057Z,80.80
2023-05-12T09:43:31.696Z,75.20
2023-05-12T09:48:34.514Z,78.90
2023-05-12T09:53:43.285Z,78.20
2023-05-12T09:58:48.576Z,80.30
2023-05-12T10:03:57.225Z,73.50
2023-05-12T10:09:19.549Z,80.80
2023-05-12T10:14:23.794Z,77.30
2023-05-12T10:19:28.581Z,74.70
2023-05-12T10:24:30.824Z,80.00
2023-05-12T10:29:35.338Z,79.90
2023-05-12T10:34:42.113Z,78.00
2023-05-12T10:39:52.538Z,76.70
2023-05-12T10:44:56.883Z,75.20
2023-05-12T10:50:00.093Z,74.60
2023-05-12T10:55:04.530Z,72.70
2023-05-12T11:00:14.885Z,72.80
2023-05-12T11:05:18.693Z,72.90
2023-05-12T11:10:22.080Z,76.00
2023-05-12T11:15:24.960Z,77.50
2023-05-12T11:20:29.534Z,77.60
2023-05-12T11:25:33.516Z,79.80
2023-05-12T11:30:35.836Z,79.40
2023-05-12T11:35:38.024Z,78.40
2023-05-12T11:40:41.499Z,80.00
2023-05-12T11:45:46.208Z,80.20
2023-05-12T11:50:51.477Z,81.20
2023-05-12T11:55:56.852Z,83.20
2023-05-12T12:01:12.840Z,83.80
2023-05-12T12:06:15.959Z,82.80
2023-05-12T12:11:19.949Z,88.50
2023-05-12T12:16:27.426Z,87.50
2023-05-12T12:21:29.682Z,88.70
2023-05-12T12:26:32.060Z,89.00
2023-05-12T12:31:36.473Z,86.80
2023-05-12T12:36:38.796Z,82.70
2023-05-12T12:41:41.295Z,83.20
2023-05-12T12:46:44.138Z,81.20
2023-05-12T12:51:47.358Z,80.20
2023-05-12T12:56:49.636Z,77.80
2023-05-12T13:01:51.999Z,76.20
2023-05-12T13:06:54.220Z,76.50
2023-05-12T13:11:56.559Z,74.50
2023-05-12T13:16:58.851Z,70.80
2023-05-12T13:22:01.044Z,74.60
2023-05-12T13:27:08.311Z,70.60
2023-05-12T13:32:10.593Z,74.90
2023-05-12T13:37:12.743Z,72.70
2023-05-12T13:42:15.133Z,71.50
2023-05-12T13:47:18.601Z,73.60
2023-05-12T13:52:21.119Z,72.40
2023-05-12T13:57:23.356Z,70.30
2023-05-12T14:02:25.804Z,70.20
2023-05-12T14:07:29.365Z,73.00
2023-05-12T14:12:31.988Z,78.20
2023-05-12T14:17:34.594Z,79.90
2023-05-12T14:22:36.916Z,80.00
2023-05-12T14:27:38.980Z,80.10
2023-05-12T14:32:41.358Z,77.20
2023-05-12T14:37:43.740Z,77.40
2023-05-12T14:42:47.464Z,77.00
2023-05-12T14:47:49.736Z,74.10
2023-05-12T14:52:52.026Z,73.60
2023-05-12T14:57:54.212Z,78.20
2023-05-12T15:02:56.478Z,78.20
2023-05-12T15:07:58.855Z,78.10
2023-05-12T15:13:01.183Z,78.20
2023-05-12T15:18:04.459Z,76.80
2023-05-12T15:23:07.028Z,74.90
2023-05-12T15:28:09.132Z,74.50
2023-05-12T15:33:11.445Z,74.00
2023-05-12T15:38:13.966Z,78.60
2023-05-12T15:43:16.142Z,78.60
2023-05-12T15:48:18.391Z,74.90
2023-05-12T15:53:20.641Z,74.40
2023-05-12T15:58:22.732Z,79.30
2023-05-12T16:03:25.192Z,74.70
2023-05-12T16:08:27.469Z,74.70
2023-05-12T16:13:29.638Z,76.40
2023-05-12T16:18:32.471Z,75.60
2023-05-12T16:23:34.935Z,78.40
2023-05-12T16:28:37.502Z,78.80
2023-05-12T16:33:39.765Z,73.30
2023-05-12T16:38:41.953Z,75.90
2023-05-12T16:43:44.188Z,71.90
2023-05-12T16:48:46.496Z,73.20
2023-05-12T16:53:48.653Z,73.60
2023-05-12T16:58:51.206Z,72.70
2023-05-12T17:03:53.407Z,73.70
2023-05-12T17:08:55.610Z,74.20
2023-05-12T17:13:57.970Z,75.50
2023-05-12T17:24:06.034Z,78.50
2023-05-12T17:29:08.336Z,74.10
2023-05-12T17:34:10.521Z,76.80
2023-05-12T17:39:15.904Z,74.50
2023-05-12T17:44:18.380Z,74.30
2023-05-12T17:49:20.600Z,75.60
2023-05-12T17:54:22.949Z,75.30
2023-05-12T17:59:25.406Z,74.90
2023-05-12T18:04:27.633Z,79.00
2023-05-12T18:09:30.455Z,76.20
2023-05-12T18:14:33.022Z,78.40
2023-05-12T18:19:35.679Z,76.20
2023-05-12T18:24:37.918Z,78.50
2023-05-12T18:29:40.184Z,77.40
2023-05-12T18:34:44.196Z,77.60
2023-05-12T18:39:46.377Z,78.20
2023-05-12T18:44:48.976Z,79.10
2023-05-12T18:49:51.224Z,80.00
2023-05-12T18:54:53.375Z,77.90
2023-05-12T18:59:55.924Z,78.60
2023-05-12T19:04:58.087Z,78.30
2023-05-12T19:10:00.305Z,81.00
2023-05-12T19:15:02.866Z,82.50
2023-05-12T19:20:06.370Z,78.20
2023-05-12T19:25:09.658Z,79.40
2023-05-12T19:30:14.152Z,80.00
2023-05-12T19:35:20.084Z,78.70
2023-05-12T19:40:22.345Z,79.50
2023-05-12T19:45:24.551Z,80.30
2023-05-12T19:50:29.679Z,83.60
2023-05-12T19:55:31.992Z,82.90
2023-05-12T20:00:34.596Z,82.70
2023-05-12T20:05:37.843Z,78.30
2023-05-12T20:10:40.063Z,79.10
2023-05-12T20:15:44.193Z,79.50
2023-05-12T20:20:46.310Z,81.30
2023-05-12T20:25:48.490Z,81.70
2023-05-12T20:30:50.759Z,79.90
2023-05-12T20:35:52.973Z,80.30
2023-05-12T20:40:55.549Z,79.60
2023-05-12T20:45:57.759Z,81.50
2023-05-12T20:51:09.344Z,84.10
2023-05-12T20:56:12.979Z,84.60
2023-05-12T21:01:18.989Z,79.30
2023-05-12T21:06:21.163Z,83.20
2023-05-12T21:11:23.305Z,80.90
2023-05-12T21:16:25.572Z,81.10
2023-05-12T21:21:28.877Z,80.30
2023-05-12T21:26:30.966Z,81.20
2023-05-12T21:31:33.384Z,80.30
2023-05-12T21:36:35.834Z,87.00
2023-05-12T21:41:38.715Z,84.40
2023-05-12T21:46:41.168Z,80.60
2023-05-12T21:51:43.386Z,80.60
2023-05-12T21:56:45.492Z,82.20
2023-05-12T22:01:47.691Z,85.40
2023-05-12T22:06:52.007Z,82.00
2023-05-12T22:11:54.153Z,82.90
2023-05-12T22:16:56.877Z,83.10
2023-05-12T22:21:59.141Z,83.80
2023-05-12T22:27:01.575Z,82.70
2023-05-12T22:32:04.209Z,80.40
2023-05-12T22:37:06.462Z,80.30
2023-05-12T22:42:08.541Z,83.80
2023-05-12T22:47:10.930Z,81.70
2023-05-12T22:52:13.255Z,81.80
2023-05-12T22:57:15.421Z,81.90
2023-05-12T23:02:17.569Z,81.90
2023-05-12T23:07:19.742Z,80.70
2023-05-12T23:12:21.914Z,84.40
2023-05-12T23:17:24.230Z,84.70
2023-05-12T23:22:26.552Z,84.00
2023-05-12T23:27:28.706Z,83.30
2023-05-12T23:32:31.422Z,81.20
2023-05-12T23:37:34.358Z,84.30
2023-05-12T23:42:36.637Z,80.30
2023-05-12T23:47:39.055Z,82.10
2023-05-12T23:52:41.403Z,82.00
2023-05-12T23:57:43.530Z,84.40
